Time;durP1;ratioP1;P1;durP2;ratioP2;P2;SDS_P1;SDS_P2;PMS_P1;PMS_P2;Temp;Humidity;BMP_temperature;BMP_pressure;BME280_temperature;BME280_humidity;BME280_pressure;Samples;Min_cycle;Max_cycle;Signal;HPM_P1;HPM_P2
2023/08/22 00:01:05;;;;;;;6.93;5.67;;;;;;;;;;5076598;28;20509;-56
2023/08/22 00:03:33;;;;;;;6.27;5.27;;;;;;;;;;5076087;28;20469;-56
2023/08/22 00:06:00;;;;;;;6.90;6.20;;;;;;;;;;5075836;28;20545;-57
2023/08/22 00:08:27;;;;;;;6.73;6.00;;;;;;;;;;5076258;28;20530;-57
2023/08/22 00:10:55;;;;;;;8.13;6.37;;;;;;;;;;5076041;28;20494;-57
2023/08/22 00:13:23;;;;;;;9.60;6.13;;;;;;;;;;5076818;28;20435;-57
2023/08/22 00:15:50;;;;;;;6.57;5.50;;;;;;;;;;5076303;28;20872;-57
2023/08/22 00:18:18;;;;;;;9.30;5.93;;;;;;;;;;5068956;28;20473;-57
2023/08/22 00:20:46;;;;;;;6.03;5.43;;;;;;;;;;5054580;28;20441;-56
2023/08/22 00:23:13;;;;;;;7.10;6.40;;;;;;;;;;5073147;28;20436;-56
2023/08/22 00:25:42;;;;;;;6.27;5.67;;;;;;;;;;5072756;28;20452;-56
2023/08/22 00:28:09;;;;;;;6.87;6.17;;;;;;;;;;5061726;28;20558;-56
2023/08/22 00:30:36;;;;;;;7.00;6.30;;;;;;;;;;5072784;28;20469;-56
2023/08/22 00:33:03;;;;;;;7.57;6.07;;;;;;;;;;5072719;28;20500;-56
2023/08/22 00:35:32;;;;;;;6.27;5.27;;;;;;;;;;5072630;28;20876;-56
2023/08/22 00:37:59;;;;;;;10.13;6.50;;;;;;;;;;5072621;28;20524;-56
2023/08/22 00:40:27;;;;;;;6.50;5.70;;;;;;;;;;5073038;28;20494;-56
2023/08/22 00:42:54;;;;;;;8.33;5.53;;;;;;;;;;5072609;28;20513;-56
2023/08/22 00:45:21;;;;;;;6.97;6.27;;;;;;;;;;5072686;28;20938;-56
2023/08/22 00:47:48;;;;;;;8.17;6.20;;;;;;;;;;5071383;28;20546;-56
2023/08/22 00:50:16;;;;;;;8.00;6.10;;;;;;;;;;5052818;28;20441;-56
2023/08/22 00:52:45;;;;;;;6.57;5.63;;;;;;;;;;5067479;28;20444;-56
2023/08/22 00:55:13;;;;;;;6.03;5.43;;;;;;;;;;5072095;28;20818;-56
2023/08/22 00:57:40;;;;;;;6.30;5.70;;;;;;;;;;5072394;28;20466;-55
2023/08/22 01:00:10;;;;;;;7.00;6.00;;;;;;;;;;5072380;28;20483;-56
2023/08/22 01:02:37;;;;;;;6.60;5.10;;;;;;;;;;5071760;28;20824;-56
2023/08/22 01:05:05;;;;;;;7.57;5.70;;;;;;;;;;5072127;28;20955;-56
2023/08/22 01:07:35;;;;;;;7.77;5.93;;;;;;;;;;5072155;28;20483;-55
2023/08/22 01:10:06;;;;;;;7.60;5.77;;;;;;;;;;5072380;28;20440;-56
2023/08/22 01:12:35;;;;;;;8.63;6.33;;;;;;;;;;5072112;28;20509;-56
2023/08/22 01:15:06;;;;;;;6.80;6.13;;;;;;;;;;5072195;28;20440;-56
2023/08/22 01:17:34;;;;;;;9.23;5.93;;;;;;;;;;5071623;28;20921;-56
2023/08/22 01:20:03;;;;;;;9.93;5.70;;;;;;;;;;5072301;28;20440;-57
2023/08/22 01:22:32;;;;;;;8.57;6.03;;;;;;;;;;5072174;28;20465;-57
2023/08/22 01:24:59;;;;;;;6.23;5.63;;;;;;;;;;5071833;28;20444;-56
2023/08/22 01:27:30;;;;;;;8.20;6.67;;;;;;;;;;5071908;28;20468;-56
2023/08/22 01:30:05;;;;;;;6.70;5.53;;;;;;;;;;5071615;28;20436;-56
2023/08/22 01:32:34;;;;;;;6.57;5.97;;;;;;;;;;5070728;28;20441;-55
2023/08/22 01:35:03;;;;;;;7.67;5.80;;;;;;;;;;5071475;28;20868;-56
2023/08/22 01:37:33;;;;;;;7.17;5.97;;;;;;;;;;5071603;28;20544;-56
2023/08/22 01:40:04;;;;;;;7.03;6.33;;;;;;;;;;5071821;28;20472;-56
2023/08/22 01:42:32;;;;;;;5.67;5.07;;;;;;;;;;5071149;28;20448;-56
2023/08/22 01:44:59;;;;;;;6.90;5.60;;;;;;;;;;5071084;28;20850;-56
2023/08/22 01:47:26;;;;;;;6.40;5.70;;;;;;;;;;5071632;28;20504;-56
2023/08/22 01:49:54;;;;;;;6.97;6.27;;;;;;;;;;5071340;28;20994;-56
2023/08/22 01:52:21;;;;;;;6.97;6.27;;;;;;;;;;5070247;28;20455;-55
2023/08/22 01:54:51;;;;;;;8.57;6.03;;;;;;;;;;5070743;28;20876;-56
2023/08/22 01:57:18;;;;;;;9.93;6.30;;;;;;;;;;5071484;28;20543;-57
2023/08/22 01:59:45;;;;;;;6.97;5.53;;;;;;;;;;5071579;28;20448;-56
2023/08/22 02:02:13;;;;;;;8.33;6.97;;;;;;;;;;5071066;28;20448;-57
2023/08/22 02:04:40;;;;;;;6.53;5.93;;;;;;;;;;5070980;28;20531;-56
2023/08/22 02:07:07;;;;;;;7.27;5.47;;;;;;;;;;5069955;28;20467;-56
2023/08/22 02:09:35;;;;;;;7.90;5.70;;;;;;;;;;5071038;28;20501;-57
2023/08/22 02:12:03;;;;;;;6.53;5.80;;;;;;;;;;5071052;28;20923;-56
2023/08/22 02:14:31;;;;;;;8.33;6.40;;;;;;;;;;5071214;28;20879;-56
2023/08/22 02:16:58;;;;;;;9.20;6.10;;;;;;;;;;5070426;28;20460;-56
2023/08/22 02:19:25;;;;;;;6.57;5.93;;;;;;;;;;5070682;28;20472;-56
2023/08/22 02:21:52;;;;;;;5.83;5.33;;;;;;;;;;5071002;28;20505;-56
2023/08/22 02:24:20;;;;;;;6.70;6.10;;;;;;;;;;5070600;28;20442;-56
2023/08/22 02:26:47;;;;;;;8.27;5.93;;;;;;;;;;5065016;28;20538;-56
2023/08/22 02:29:16;;;;;;;10.40;6.90;;;;;;;;;;5050707;28;20926;-56
2023/08/22 02:31:43;;;;;;;7.83;6.00;;;;;;;;;;5050739;28;20932;-57
2023/08/22 02:34:10;;;;;;;7.23;6.43;;;;;;;;;;5050681;28;20472;-56
2023/08/22 02:36:37;;;;;;;7.20;6.13;;;;;;;;;;5071221;22;20547;-53
2023/08/22 02:39:05;;;;;;;9.00;6.20;;;;;;;;;;5050599;28;20465;-54
2023/08/22 02:41:32;;;;;;;7.87;5.90;;;;;;;;;;5050202;28;20503;-52
2023/08/22 02:43:59;;;;;;;6.37;5.80;;;;;;;;;;5066982;28;20472;-53
2023/08/22 02:46:28;;;;;;;7.73;6.37;;;;;;;;;;5061342;28;20850;-53
2023/08/22 02:48:55;;;;;;;7.73;5.90;;;;;;;;;;5050815;28;20508;-53
2023/08/22 02:51:22;;;;;;;6.90;5.53;;;;;;;;;;5050613;28;20815;-53
2023/08/22 02:53:50;;;;;;;7.63;5.83;;;;;;;;;;5049496;28;20508;-54
2023/08/22 02:56:17;;;;;;;8.93;6.27;;;;;;;;;;5046483;28;20897;-55
2023/08/22 02:58:46;;;;;;;7.50;6.40;;;;;;;;;;5030572;28;20469;-55
2023/08/22 03:01:13;;;;;;;6.97;6.23;;;;;;;;;;5037177;28;20445;-54
2023/08/22 03:03:43;;;;;;;6.67;5.70;;;;;;;;;;5049760;28;20453;-54
2023/08/22 03:06:10;;;;;;;6.50;5.90;;;;;;;;;;5049922;28;20552;-55
2023/08/22 03:08:37;;;;;;;6.37;5.77;;;;;;;;;;5050585;28;20555;-54
2023/08/22 03:11:05;;;;;;;6.63;5.83;;;;;;;;;;5049929;28;20477;-54
2023/08/22 03:13:32;;;;;;;8.13;6.10;;;;;;;;;;5035044;28;20859;-55
2023/08/22 03:15:59;;;;;;;6.47;5.70;;;;;;;;;;5031985;28;20437;-55
2023/08/22 03:18:26;;;;;;;8.50;6.20;;;;;;;;;;5050461;28;20843;-54
2023/08/22 03:20:57;;;;;;;9.03;6.10;;;;;;;;;;5048808;28;21041;-55
2023/08/22 03:23:24;;;;;;;5.87;5.37;;;;;;;;;;5047104;28;20477;-55
2023/08/22 03:25:58;;;;;;;7.50;5.60;;;;;;;;;;5046864;28;20959;-54
2023/08/22 03:28:26;;;;;;;7.10;6.40;;;;;;;;;;5033640;28;20479;-55
2023/08/22 03:30:57;;;;;;;6.53;5.67;;;;;;;;;;5036658;28;20507;-55
2023/08/22 03:33:25;;;;;;;7.37;6.10;;;;;;;;;;5046790;28;20449;-56
2023/08/22 03:35:53;;;;;;;7.23;6.53;;;;;;;;;;5047639;28;20907;-55
2023/08/22 03:38:21;;;;;;;6.77;6.07;;;;;;;;;;5047091;28;20477;-54
2023/08/22 03:40:49;;;;;;;7.77;6.37;;;;;;;;;;5046760;28;21092;-53
2023/08/22 03:43:16;;;;;;;7.63;6.80;;;;;;;;;;5047614;28;20485;-53
2023/08/22 03:45:44;;;;;;;7.30;6.60;;;;;;;;;;5035974;28;20456;-54
2023/08/22 03:48:11;;;;;;;6.90;5.93;;;;;;;;;;5027611;28;21045;-53
2023/08/22 03:50:39;;;;;;;7.33;5.83;;;;;;;;;;5043044;28;20882;-54
2023/08/22 03:53:07;;;;;;;6.40;5.70;;;;;;;;;;5047334;28;20441;-53
2023/08/22 03:55:35;;;;;;;9.23;6.13;;;;;;;;;;5049703;28;20473;-55
2023/08/22 03:58:03;;;;;;;6.50;5.90;;;;;;;;;;5050952;28;20911;-53
2023/08/22 04:00:30;;;;;;;8.10;7.30;;;;;;;;;;5031905;28;20438;-55
2023/08/22 04:02:58;;;;;;;8.10;6.40;;;;;;;;;;5031084;28;20496;-55
2023/08/22 04:05:25;;;;;;;8.43;6.27;;;;;;;;;;5042136;28;20964;-54
2023/08/22 04:07:53;;;;;;;8.53;6.20;;;;;;;;;;5051042;28;20503;-55
2023/08/22 04:10:21;;;;;;;6.97;6.27;;;;;;;;;;5049739;28;20843;-55
2023/08/22 04:12:49;;;;;;;7.83;5.77;;;;;;;;;;5050699;28;20444;-55
2023/08/22 04:15:19;;;;;;;7.40;6.27;;;;;;;;;;5050652;28;20477;-55
2023/08/22 04:17:46;;;;;;;8.80;6.20;;;;;;;;;;5045687;28;20473;-54
2023/08/22 04:20:14;;;;;;;6.90;6.20;;;;;;;;;;5031083;28;20474;-55
2023/08/22 04:22:42;;;;;;;7.57;6.87;;;;;;;;;;5044001;28;20542;-55
2023/08/22 04:25:09;;;;;;;7.50;6.27;;;;;;;;;;5051462;28;20472;-55
2023/08/22 04:27:37;;;;;;;10.70;5.20;;;;;;;;;;5049204;28;20926;-54
2023/08/22 04:30:06;;;;;;;6.93;6.10;;;;;;;;;;5049851;28;20501;-54
2023/08/22 04:32:33;;;;;;;7.80;6.50;;;;;;;;;;5045634;28;20444;-52
2023/08/22 04:35:01;;;;;;;8.97;6.47;;;;;;;;;;5049212;28;20477;-55
2023/08/22 04:37:28;;;;;;;8.90;6.87;;;;;;;;;;5049979;28;20501;-54
2023/08/22 04:39:56;;;;;;;7.03;6.30;;;;;;;;;;5051647;28;20444;-54
2023/08/22 04:42:23;;;;;;;6.50;5.90;;;;;;;;;;5052067;28;20437;-54
2023/08/22 04:44:50;;;;;;;6.70;5.67;;;;;;;;;;5051955;28;20915;-55
2023/08/22 04:47:19;;;;;;;6.80;5.80;;;;;;;;;;5051161;28;20543;-55
2023/08/22 04:49:46;;;;;;;7.50;6.43;;;;;;;;;;5050801;28;20734;-55
2023/08/22 04:52:14;;;;;;;7.40;6.70;;;;;;;;;;5051808;28;20521;-55
2023/08/22 04:54:41;;;;;;;9.63;7.10;;;;;;;;;;5052487;28;20442;-55
2023/08/22 04:57:08;;;;;;;6.57;5.90;;;;;;;;;;5051879;28;20496;-55
2023/08/22 04:59:35;;;;;;;6.93;6.23;;;;;;;;;;5050558;28;20467;-55
2023/08/22 05:02:03;;;;;;;6.20;5.60;;;;;;;;;;5051488;28;20471;-55
2023/08/22 05:04:31;;;;;;;7.37;6.50;;;;;;;;;;5045282;28;20450;-55
2023/08/22 05:06:59;;;;;;;7.27;6.00;;;;;;;;;;5037646;28;20562;-55
2023/08/22 05:09:26;;;;;;;8.43;6.73;;;;;;;;;;5051474;28;20562;-55
2023/08/22 05:11:53;;;;;;;6.60;6.00;;;;;;;;;;5051983;28;20441;-55
2023/08/22 05:14:21;;;;;;;7.37;6.67;;;;;;;;;;5050740;28;20449;-55
2023/08/22 05:16:51;;;;;;;8.20;6.13;;;;;;;;;;5051270;28;20468;-54
2023/08/22 05:19:18;;;;;;;8.40;6.97;;;;;;;;;;5052068;28;20436;-55
2023/08/22 05:21:47;;;;;;;7.53;6.10;;;;;;;;;;5048980;28;20436;-55
2023/08/22 05:24:14;;;;;;;9.50;6.90;;;;;;;;;;5051511;28;20472;-54
2023/08/22 05:26:41;;;;;;;8.20;6.80;;;;;;;;;;5051380;28;20462;-54
2023/08/22 05:29:08;;;;;;;7.33;6.10;;;;;;;;;;5051076;28;20465;-54
2023/08/22 05:31:36;;;;;;;7.77;7.03;;;;;;;;;;5051105;28;20445;-53
2023/08/22 05:34:03;;;;;;;8.20;6.37;;;;;;;;;;5051600;28;20886;-54
2023/08/22 05:36:31;;;;;;;8.70;6.47;;;;;;;;;;5040698;28;20548;-55
2023/08/22 05:38:59;;;;;;;7.60;6.80;;;;;;;;;;5030836;28;20465;-55
2023/08/22 05:41:26;;;;;;;6.53;5.93;;;;;;;;;;5049913;28;20548;-55
2023/08/22 05:43:54;;;;;;;7.30;6.43;;;;;;;;;;5050521;28;20441;-55
2023/08/22 05:46:21;;;;;;;7.60;6.47;;;;;;;;;;5050729;28;20515;-55
2023/08/22 05:48:48;;;;;;;8.17;6.77;;;;;;;;;;5050787;28;20469;-54
2023/08/22 05:51:16;;;;;;;6.70;6.00;;;;;;;;;;5050855;28;20465;-53
2023/08/22 05:53:43;;;;;;;9.30;6.43;;;;;;;;;;5048426;28;20522;-54
2023/08/22 05:56:11;;;;;;;8.93;6.57;;;;;;;;;;5045124;28;20840;-54
2023/08/22 05:58:39;;;;;;;8.70;6.50;;;;;;;;;;5045159;28;20482;-54
2023/08/22 06:01:10;;;;;;;8.00;7.20;;;;;;;;;;5047611;28;20832;-54
2023/08/22 06:03:37;;;;;;;8.80;7.20;;;;;;;;;;5043525;28;20883;-54
2023/08/22 06:06:05;;;;;;;7.53;6.00;;;;;;;;;;5041432;28;20454;-55
2023/08/22 06:08:32;;;;;;;7.93;6.93;;;;;;;;;;5049263;28;20491;-55
2023/08/22 06:10:59;;;;;;;8.30;7.13;;;;;;;;;;5043613;28;20490;-54
2023/08/22 06:13:28;;;;;;;10.33;6.80;;;;;;;;;;5039155;28;20532;-55
2023/08/22 06:15:57;;;;;;;6.63;5.93;;;;;;;;;;5045895;28;20972;-55
2023/08/22 06:18:24;;;;;;;10.70;8.00;;;;;;;;;;5044474;28;20455;-55
2023/08/22 06:20:52;;;;;;;12.17;7.60;;;;;;;;;;5038730;28;20504;-55
2023/08/22 06:23:19;;;;;;;7.30;6.63;;;;;;;;;;5029204;28;20442;-55
2023/08/22 06:25:48;;;;;;;7.63;6.67;;;;;;;;;;5045985;28;20547;-54
2023/08/22 06:28:16;;;;;;;7.80;7.10;;;;;;;;;;5048749;28;20544;-53
2023/08/22 06:30:44;;;;;;;7.07;6.37;;;;;;;;;;5049252;28;20643;-54
2023/08/22 06:33:11;;;;;;;10.90;8.80;;;;;;;;;;5048640;28;20954;-54
2023/08/22 06:35:39;;;;;;;9.07;7.17;;;;;;;;;;5045699;28;20839;-54
2023/08/22 06:38:06;;;;;;;7.90;7.00;;;;;;;;;;5053787;28;20512;-53
2023/08/22 06:40:36;;;;;;;8.10;7.07;;;;;;;;;;5049111;28;20434;-55
2023/08/22 06:43:03;;;;;;;7.57;6.23;;;;;;;;;;5046762;28;20520;-54
2023/08/22 06:45:31;;;;;;;7.70;6.90;;;;;;;;;;5048955;28;20928;-54
2023/08/22 06:47:59;;;;;;;6.67;5.97;;;;;;;;;;5048842;28;20492;-54
2023/08/22 06:50:26;;;;;;;7.23;6.63;;;;;;;;;;5049454;28;21022;-54
2023/08/22 06:52:54;;;;;;;9.20;7.07;;;;;;;;;;5049036;28;20534;-55
2023/08/22 06:55:21;;;;;;;7.13;6.43;;;;;;;;;;5047799;28;20538;-53
2023/08/22 06:57:48;;;;;;;7.23;6.53;;;;;;;;;;5049407;28;20882;-53
2023/08/22 07:00:16;;;;;;;7.60;6.77;;;;;;;;;;5048935;28;20944;-54
2023/08/22 07:02:44;;;;;;;9.80;7.07;;;;;;;;;;5045562;28;20450;-55
2023/08/22 07:05:13;;;;;;;8.63;7.50;;;;;;;;;;5049312;28;20449;-53
2023/08/22 07:07:41;;;;;;;8.97;8.17;;;;;;;;;;5049114;28;20457;-54
2023/08/22 07:10:09;;;;;;;8.70;6.73;;;;;;;;;;5044129;28;20501;-53
2023/08/22 07:12:36;;;;;;;11.23;7.83;;;;;;;;;;5030425;28;20470;-54
2023/08/22 07:15:04;;;;;;;7.53;6.77;;;;;;;;;;5035034;28;20433;-53
2023/08/22 07:17:32;;;;;;;8.73;7.27;;;;;;;;;;5048912;28;20461;-55
2023/08/22 07:19:59;;;;;;;9.00;7.87;;;;;;;;;;5049877;28;20476;-55
2023/08/22 07:22:28;;;;;;;8.27;7.47;;;;;;;;;;5049132;28;20499;-53
2023/08/22 07:24:55;;;;;;;10.47;9.37;;;;;;;;;;5049809;28;20731;-53
2023/08/22 07:27:23;;;;;;;8.90;7.80;;;;;;;;;;5042428;28;20950;-55
2023/08/22 07:29:50;;;;;;;7.80;7.10;;;;;;;;;;5032388;28;21097;-54
2023/08/22 07:32:18;;;;;;;12.57;8.40;;;;;;;;;;5033766;28;20956;-53
2023/08/22 07:34:46;;;;;;;8.23;7.43;;;;;;;;;;5033972;28;20477;-55
2023/08/22 07:37:13;;;;;;;8.17;7.30;;;;;;;;;;5038438;28;20990;-53
2023/08/22 07:39:42;;;;;;;8.57;7.30;;;;;;;;;;5052616;28;20433;-53
2023/08/22 07:42:09;;;;;;;9.00;7.10;;;;;;;;;;5047609;28;20473;-53
2023/08/22 07:44:37;;;;;;;8.37;7.30;;;;;;;;;;5052965;28;20862;-54
2023/08/22 07:47:04;;;;;;;9.23;7.60;;;;;;;;;;5052850;28;20507;-54
2023/08/22 07:49:31;;;;;;;8.60;7.80;;;;;;;;;;5052264;28;20995;-54
2023/08/22 07:51:59;;;;;;;10.17;8.30;;;;;;;;;;5052108;28;20441;-55
2023/08/22 07:54:26;;;;;;;8.93;7.87;;;;;;;;;;5036629;28;20444;-53
2023/08/22 07:56:55;;;;;;;9.93;7.80;;;;;;;;;;5047538;28;20462;-55
2023/08/22 07:59:22;;;;;;;11.00;8.53;;;;;;;;;;5034868;28;20470;-55
2023/08/22 08:01:50;;;;;;;10.30;8.20;;;;;;;;;;5051869;28;20473;-55
2023/08/22 08:04:17;;;;;;;9.40;8.47;;;;;;;;;;5052123;28;20531;-55
2023/08/22 08:06:45;;;;;;;9.30;8.30;;;;;;;;;;5052836;28;20489;-54
2023/08/22 08:09:13;;;;;;;8.50;7.70;;;;;;;;;;5050469;28;20446;-55
2023/08/22 08:11:40;;;;;;;8.33;7.53;;;;;;;;;;5043607;28;20490;-55
2023/08/22 08:14:09;;;;;;;9.70;8.47;;;;;;;;;;5051998;28;20437;-55
2023/08/22 08:16:36;;;;;;;10.77;7.87;;;;;;;;;;5049556;28;20991;-55
2023/08/22 08:19:04;;;;;;;12.43;8.30;;;;;;;;;;5051816;28;20472;-55
2023/08/22 08:21:31;;;;;;;8.13;7.27;;;;;;;;;;5052002;28;20441;-56
2023/08/22 08:23:58;;;;;;;8.93;8.00;;;;;;;;;;5051534;28;20473;-55
2023/08/22 08:26:26;;;;;;;8.60;7.80;;;;;;;;;;5049142;28;20497;-55
2023/08/22 08:28:54;;;;;;;8.90;7.73;;;;;;;;;;5051618;28;20507;-55
2023/08/22 08:31:22;;;;;;;9.57;8.03;;;;;;;;;;5044760;28;20509;-55
2023/08/22 08:33:49;;;;;;;9.27;8.27;;;;;;;;;;5047148;28;20911;-55
2023/08/22 08:38:45;;;;;;;8.47;7.60;;;;;;;;;;5041448;28;20474;-55
2023/08/22 08:41:12;;;;;;;8.90;8.00;;;;;;;;;;5041395;28;20461;-56
2023/08/22 08:43:40;;;;;;;9.40;7.90;;;;;;;;;;5048790;28;20734;-54
2023/08/22 08:46:07;;;;;;;9.77;8.77;;;;;;;;;;5050076;28;20461;-56
2023/08/22 08:48:37;;;;;;;8.30;7.50;;;;;;;;;;5050616;28;20441;-56
2023/08/22 08:51:05;;;;;;;9.07;8.13;;;;;;;;;;5034586;28;20513;-56
2023/08/22 08:53:34;;;;;;;8.20;7.40;;;;;;;;;;5050776;28;20916;-56
2023/08/22 08:56:02;;;;;;;10.23;8.00;;;;;;;;;;5051651;28;20532;-55
2023/08/22 08:58:30;;;;;;;10.93;7.47;;;;;;;;;;5051747;28;20477;-56
2023/08/22 09:00:58;;;;;;;9.50;8.50;;;;;;;;;;5046915;28;20502;-55
2023/08/22 09:03:25;;;;;;;8.70;8.00;;;;;;;;;;5050780;28;20495;-54
2023/08/22 09:05:54;;;;;;;8.53;7.73;;;;;;;;;;5051596;28;20472;-56
2023/08/22 09:08:23;;;;;;;9.13;7.90;;;;;;;;;;5052151;28;20457;-55
2023/08/22 09:10:51;;;;;;;8.80;8.00;;;;;;;;;;5052524;28;20477;-57
2023/08/22 09:13:25;;;;;;;11.00;8.77;;;;;;;;;;5051843;28;20814;-57
2023/08/22 09:15:53;;;;;;;9.60;8.50;;;;;;;;;;5050377;28;20966;-56
2023/08/22 09:18:20;;;;;;;8.90;8.10;;;;;;;;;;5052206;28;20887;-56
2023/08/22 09:20:47;;;;;;;11.13;8.00;;;;;;;;;;5051383;28;20469;-56
2023/08/22 09:23:28;;;;;;;9.10;8.33;;;;;;;;;;5050807;28;20438;-56
2023/08/22 09:25:55;;;;;;;10.07;8.17;;;;;;;;;;5050345;28;20445;-56
2023/08/22 09:28:23;;;;;;;9.77;8.00;;;;;;;;;;5041454;28;20493;-57
2023/08/22 09:30:50;;;;;;;8.07;7.30;;;;;;;;;;5051485;28;21115;-56
2023/08/22 09:33:18;;;;;;;9.73;7.90;;;;;;;;;;5048196;28;20475;-57
2023/08/22 09:35:46;;;;;;;9.17;8.33;;;;;;;;;;5052062;28;20525;-55
2023/08/22 09:38:14;;;;;;;9.93;7.90;;;;;;;;;;5050866;28;20590;-56
2023/08/22 09:40:52;;;;;;;8.10;7.30;;;;;;;;;;5050832;28;20476;-54
2023/08/22 09:43:20;;;;;;;8.90;8.00;;;;;;;;;;5048769;28;20451;-56
2023/08/22 09:45:51;;;;;;;9.70;8.80;;;;;;;;;;5044123;28;20461;-56
2023/08/22 09:48:20;;;;;;;8.97;8.23;;;;;;;;;;5044908;28;20466;-56
2023/08/22 09:50:51;;;;;;;9.10;7.83;;;;;;;;;;5050319;28;20508;-55
2023/08/22 09:53:19;;;;;;;8.60;7.80;;;;;;;;;;5050287;28;20532;-56
2023/08/22 09:55:47;;;;;;;10.80;8.37;;;;;;;;;;5050622;28;20481;-56
2023/08/22 09:58:16;;;;;;;9.17;8.30;;;;;;;;;;5051462;28;20453;-56
2023/08/22 10:00:44;;;;;;;8.93;8.13;;;;;;;;;;5051697;28;20529;-55
2023/08/22 10:03:12;;;;;;;8.60;7.77;;;;;;;;;;5050991;28;20449;-56
2023/08/22 10:05:40;;;;;;;8.73;7.93;;;;;;;;;;5050804;28;21036;-56
2023/08/22 10:08:07;;;;;;;8.40;7.60;;;;;;;;;;5051096;28;20464;-55
2023/08/22 10:10:34;;;;;;;9.27;8.00;;;;;;;;;;5050953;28;20508;-55
2023/08/22 10:13:03;;;;;;;9.90;8.47;;;;;;;;;;5051296;28;20776;-56
2023/08/22 10:15:33;;;;;;;8.63;7.70;;;;;;;;;;5050998;28;20437;-55
2023/08/22 10:18:00;;;;;;;9.03;8.13;;;;;;;;;;5030931;28;21050;-55
2023/08/22 10:20:28;;;;;;;9.07;8.20;;;;;;;;;;5031028;28;20496;-57
2023/08/22 10:22:55;;;;;;;10.67;9.60;;;;;;;;;;5050312;28;20875;-56
2023/08/22 10:25:42;;;;;;;9.77;8.77;;;;;;;;;;5050495;28;20894;-57
2023/08/22 10:28:11;;;;;;;10.13;9.13;;;;;;;;;;5049552;28;20500;-55
2023/08/22 10:30:58;;;;;;;11.77;9.70;;;;;;;;;;5048704;28;20514;-56
2023/08/22 10:33:28;;;;;;;11.00;9.90;;;;;;;;;;5046326;28;20534;-56
2023/08/22 10:36:05;;;;;;;10.97;8.90;;;;;;;;;;5049005;28;20571;-56
2023/08/22 10:38:47;;;;;;;9.13;8.27;;;;;;;;;;5047688;28;20624;-56
2023/08/22 10:41:14;;;;;;;9.73;8.37;;;;;;;;;;5048268;28;20519;-55
2023/08/22 10:43:43;;;;;;;9.40;8.50;;;;;;;;;;5049301;28;20469;-56
2023/08/22 10:46:10;;;;;;;9.20;8.37;;;;;;;;;;5050418;28;20491;-54
2023/08/22 10:48:37;;;;;;;9.63;8.67;;;;;;;;;;5049785;28;20491;-55
2023/08/22 10:51:08;;;;;;;9.20;8.37;;;;;;;;;;5046149;28;20905;-56
2023/08/22 10:53:42;;;;;;;9.53;8.53;;;;;;;;;;5049766;28;20920;-56
2023/08/22 10:56:20;;;;;;;9.17;8.20;;;;;;;;;;5049985;28;20536;-56
2023/08/22 10:58:58;;;;;;;8.20;7.40;;;;;;;;;;5049703;28;20539;-56
2023/08/22 11:01:25;;;;;;;10.10;8.93;;;;;;;;;;5047462;28;20445;-55
2023/08/22 11:03:55;;;;;;;8.60;7.80;;;;;;;;;;5046426;28;20473;-58
2023/08/22 11:06:23;;;;;;;9.53;8.67;;;;;;;;;;5049029;28;20452;-56
2023/08/22 11:08:51;;;;;;;8.47;7.67;;;;;;;;;;5048349;28;20535;-56
2023/08/22 11:11:19;;;;;;;10.87;8.10;;;;;;;;;;5048101;28;20554;-56
2023/08/22 11:13:48;;;;;;;8.67;7.77;;;;;;;;;;5046572;28;20535;-55
2023/08/22 11:16:16;;;;;;;7.27;6.57;;;;;;;;;;5047766;28;20496;-56
2023/08/22 11:18:44;;;;;;;8.07;7.27;;;;;;;;;;5049764;28;20919;-56
2023/08/22 11:21:11;;;;;;;8.90;7.33;;;;;;;;;;5049606;28;20442;-57
2023/08/22 11:23:39;;;;;;;7.80;7.10;;;;;;;;;;5049895;28;20932;-57
2023/08/22 11:26:08;;;;;;;10.37;8.27;;;;;;;;;;5045719;28;20491;-55
2023/08/22 11:28:36;;;;;;;10.13;9.03;;;;;;;;;;5049085;28;20482;-56
2023/08/22 11:31:05;;;;;;;10.67;9.77;;;;;;;;;;5045075;28;20527;-56
2023/08/22 11:33:36;;;;;;;14.23;8.80;;;;;;;;;;5037805;28;20442;-56
2023/08/22 11:36:04;;;;;;;10.57;9.47;;;;;;;;;;5030508;28;20873;-56
2023/08/22 11:38:35;;;;;;;10.80;9.70;;;;;;;;;;5030440;28;20491;-55
2023/08/22 11:41:04;;;;;;;9.60;8.80;;;;;;;;;;5033609;28;20954;-54
2023/08/22 11:43:32;;;;;;;12.03;10.93;;;;;;;;;;5049230;28;20449;-55
2023/08/22 11:45:59;;;;;;;11.53;10.40;;;;;;;;;;5048459;28;20437;-57
2023/08/22 11:48:28;;;;;;;10.17;9.10;;;;;;;;;;5048942;28;20461;-56
2023/08/22 11:50:55;;;;;;;11.17;9.80;;;;;;;;;;5048950;28;20509;-56
2023/08/22 11:53:29;;;;;;;10.90;9.73;;;;;;;;;;5049071;28;20503;-56
2023/08/22 11:55:57;;;;;;;11.70;9.90;;;;;;;;;;5049331;28;20438;-56
2023/08/22 11:58:24;;;;;;;10.50;9.50;;;;;;;;;;5046897;28;20505;-55
2023/08/22 12:00:54;;;;;;;9.07;8.17;;;;;;;;;;5048688;28;20480;-57
2023/08/22 12:03:22;;;;;;;11.07;9.97;;;;;;;;;;5049994;28;20451;-57
2023/08/22 12:05:50;;;;;;;9.33;8.43;;;;;;;;;;5049794;28;20433;-55
2023/08/22 12:08:18;;;;;;;11.37;8.70;;;;;;;;;;5049798;28;20515;-56
2023/08/22 12:10:47;;;;;;;11.63;9.17;;;;;;;;;;5050111;28;20505;-56
2023/08/22 12:13:15;;;;;;;9.63;8.47;;;;;;;;;;5050027;28;20814;-57
2023/08/22 12:15:42;;;;;;;10.80;8.90;;;;;;;;;;5049868;28;20480;-57
2023/08/22 12:18:10;;;;;;;9.67;8.77;;;;;;;;;;5050498;28;20546;-57
2023/08/22 12:20:38;;;;;;;9.70;8.57;;;;;;;;;;5053053;28;20491;-56
2023/08/22 12:23:07;;;;;;;9.53;8.63;;;;;;;;;;5051937;28;20429;-57
2023/08/22 12:25:35;;;;;;;10.60;9.60;;;;;;;;;;5053404;28;20522;-57
2023/08/22 12:28:03;;;;;;;10.80;9.30;;;;;;;;;;5052807;28;20460;-56
2023/08/22 12:30:33;;;;;;;10.43;9.07;;;;;;;;;;5052786;28;20440;-55
2023/08/22 12:33:01;;;;;;;11.73;9.67;;;;;;;;;;5052506;28;20928;-57
2023/08/22 12:35:28;;;;;;;9.43;8.53;;;;;;;;;;5049852;28;20528;-56
2023/08/22 12:37:55;;;;;;;10.60;9.60;;;;;;;;;;5052301;28;20503;-56
2023/08/22 12:40:24;;;;;;;9.23;8.27;;;;;;;;;;5052653;28;20441;-57
2023/08/22 12:42:51;;;;;;;9.27;8.33;;;;;;;;;;5052286;28;20433;-56
2023/08/22 12:45:19;;;;;;;9.43;8.63;;;;;;;;;;5050777;28;20530;-56
2023/08/22 12:47:48;;;;;;;8.67;7.97;;;;;;;;;;5049197;28;20562;-56
2023/08/22 12:50:16;;;;;;;9.20;8.23;;;;;;;;;;5052920;28;20484;-56
2023/08/22 12:52:43;;;;;;;8.53;7.73;;;;;;;;;;5052395;28;20509;-56
2023/08/22 12:55:10;;;;;;;8.47;7.67;;;;;;;;;;5052793;28;20434;-56
2023/08/22 12:57:41;;;;;;;8.67;7.77;;;;;;;;;;5052610;28;20486;-56
2023/08/22 13:00:09;;;;;;;8.40;7.50;;;;;;;;;;5052682;28;20437;-55
2023/08/22 13:02:37;;;;;;;9.47;8.13;;;;;;;;;;5052898;28;20438;-55
2023/08/22 13:05:05;;;;;;;9.00;8.20;;;;;;;;;;5052701;28;20799;-56
2023/08/22 13:07:32;;;;;;;10.43;9.43;;;;;;;;;;5052680;28;20465;-56
2023/08/22 13:09:59;;;;;;;9.37;8.47;;;;;;;;;;5052615;28;20857;-56
2023/08/22 13:12:27;;;;;;;11.03;9.77;;;;;;;;;;5052387;28;21060;-55
2023/08/22 13:14:55;;;;;;;10.40;9.50;;;;;;;;;;5051831;28;20960;-54
2023/08/22 13:17:22;;;;;;;9.53;8.67;;;;;;;;;;5051797;28;20453;-54
2023/08/22 13:19:50;;;;;;;10.20;8.10;;;;;;;;;;5051919;28;20974;-56
2023/08/22 13:22:17;;;;;;;10.90;7.40;;;;;;;;;;5047700;28;20470;-57
2023/08/22 13:24:44;;;;;;;9.07;7.67;;;;;;;;;;5047599;28;20522;-54
2023/08/22 13:27:12;;;;;;;8.03;7.30;;;;;;;;;;5051612;28;20539;-54
2023/08/22 13:29:39;;;;;;;9.30;8.50;;;;;;;;;;5049352;28;20481;-56
2023/08/22 13:32:08;;;;;;;7.90;7.30;;;;;;;;;;5051457;28;20509;-58
2023/08/22 13:34:35;;;;;;;9.37;7.27;;;;;;;;;;5051657;28;20437;-59
2023/08/22 13:37:02;;;;;;;9.20;7.43;;;;;;;;;;5051468;28;20497;-58
2023/08/22 13:39:30;;;;;;;8.10;7.40;;;;;;;;;;5049753;28;20502;-58
2023/08/22 13:41:57;;;;;;;8.53;7.73;;;;;;;;;;5051127;28;20433;-59
2023/08/22 13:44:25;;;;;;;7.27;6.50;;;;;;;;;;5050763;28;20891;-60
2023/08/22 13:46:52;;;;;;;8.37;7.30;;;;;;;;;;5050774;28;20453;-59
2023/08/22 13:49:20;;;;;;;9.67;7.40;;;;;;;;;;5051276;28;20469;-60
2023/08/22 13:51:48;;;;;;;7.93;6.20;;;;;;;;;;5051579;28;20846;-60
2023/08/22 13:54:16;;;;;;;7.80;7.10;;;;;;;;;;5050447;28;21004;-58
2023/08/22 13:56:43;;;;;;;6.30;5.67;;;;;;;;;;5049627;28;20552;-59
2023/08/22 13:59:10;;;;;;;12.63;7.93;;;;;;;;;;5051264;28;20491;-57
2023/08/22 14:01:38;;;;;;;7.43;6.70;;;;;;;;;;5050839;28;20932;-59
2023/08/22 14:04:05;;;;;;;8.37;6.83;;;;;;;;;;5050370;28;20540;-58
2023/08/22 14:06:34;;;;;;;7.23;6.40;;;;;;;;;;5049423;28;20933;-59
2023/08/22 14:09:01;;;;;;;8.10;6.70;;;;;;;;;;5050649;28;20567;-57
2023/08/22 14:11:29;;;;;;;8.00;7.20;;;;;;;;;;5050271;28;20477;-57
2023/08/22 14:13:56;;;;;;;9.33;7.60;;;;;;;;;;5050248;28;20445;-57
2023/08/22 14:16:23;;;;;;;7.73;6.90;;;;;;;;;;5050927;28;20441;-56
2023/08/22 14:18:50;;;;;;;8.03;6.70;;;;;;;;;;5047379;28;20445;-58
2023/08/22 14:21:18;;;;;;;7.60;6.50;;;;;;;;;;5050569;28;20944;-57
2023/08/22 14:23:46;;;;;;;7.23;6.23;;;;;;;;;;5050158;28;20492;-57
2023/08/22 14:26:13;;;;;;;7.50;6.70;;;;;;;;;;5050680;28;20472;-58
2023/08/22 14:28:41;;;;;;;7.43;6.73;;;;;;;;;;5045553;28;20481;-57
2023/08/22 14:31:08;;;;;;;7.30;6.60;;;;;;;;;;5049580;28;20467;-57
2023/08/22 14:33:36;;;;;;;7.93;7.17;;;;;;;;;;5046893;28;20438;-59
2023/08/22 14:36:06;;;;;;;7.37;6.73;;;;;;;;;;5043485;28;20472;-59
2023/08/22 14:38:33;;;;;;;6.80;5.90;;;;;;;;;;5052569;23;20498;-86
2023/08/22 14:41:02;;;;;;;7.90;6.73;;;;;;;;;;5032922;28;20465;-87
2023/08/22 14:43:29;;;;;;;7.03;6.33;;;;;;;;;;5032981;28;20446;-87
2023/08/22 14:45:57;;;;;;;7.57;6.37;;;;;;;;;;5031952;28;21021;-86
2023/08/22 14:48:25;;;;;;;7.43;6.60;;;;;;;;;;5029827;28;20528;-87